Daikoku — JD3247 — position and weather

sailwx.info

Track history (hours):
 
Tides and Currents Weather Stations Pressure Air Temp Water Temp Dewpoint Dewpoint Depression Visibility Wind Speed Wind Dir Waves Ship Positions

Daikoku

Last reported at 2015-Feb-01 12:33 UTC. Time now 2015-Feb-01 13:19 UTC.
Position N 35°09' E 139°45'.

Length 95 m; draft 4.1 m.

Type: Cargo ship. MMSI: 431003009.

Date/timePositionNaut miles runAvg speedWind from/ knotsBaromVisibWave heightAir tempDewpointWater temp
2015-Feb-01 12:33N 35°09' E 139°45'1212.1
2015-Feb-01 11:33N 35°20' E 139°42'4 3.8
2015-Feb-01 10:32N 35°24' E 139°41'0 0.0
2015-Feb-01 09:32N 35°24' E 139°41'1 0.7
2015-Feb-01 08:34N 35°23' E 139°40'3 3.0
2015-Feb-01 07:33N 35°26' E 139°42'1 1.0
2015-Feb-01 06:33N 35°27' E 139°41'5 5.1
2015-Feb-01 05:33N 35°22' E 139°43'1010.3
2015-Feb-01 04:33N 35°12' E 139°47'10 9.9
2015-Feb-01 03:33N 35°03' E 139°42'1411.3
2015-Feb-01 02:19N 34°54' E 139°28'22610.7
2015-Jan-31 05:11N 34°14' E 134°59'913.5
2015-Jan-31 04:32N 34°23' E 135°02'1413.7
2015-Jan-31 03:33N 34°32' E 135°14'9 9.4
2015-Jan-31 02:33N 34°41' E 135°17'0 0.3
2015-Jan-31 01:34N 34°41' E 135°16'3 2.6
2015-Jan-31 00:34N 34°41' E 135°13'1 0.6
2015-Jan-30 23:31N 34°41' E 135°12'0 0.0
2015-Jan-30 22:31N 34°41' E 135°12'0 0.0
2015-Jan-30 21:25N 34°41' E 135°12'0 0.0
2015-Jan-30 20:31N 34°41' E 135°12'0 0.0
2015-Jan-30 19:31N 34°41' E 135°12'0 0.0
2015-Jan-30 18:31N 34°41' E 135°12'0 0.0
2015-Jan-30 17:31N 34°41' E 135°12'0 0.0
2015-Jan-30 16:31N 34°41' E 135°12'0 0.0
2015-Jan-30 15:31N 34°41' E 135°12'0 0.0
2015-Jan-30 14:31N 34°41' E 135°12'0 0.0
2015-Jan-30 13:31N 34°41' E 135°12'0 0.0
2015-Jan-30 12:31N 34°41' E 135°12'0 0.0
2015-Jan-30 11:31N 34°41' E 135°12'0 0.0
2015-Jan-30 10:31N 34°41' E 135°12'0 0.0
2015-Jan-30 09:31N 34°41' E 135°12'0 0.0
2015-Jan-30 08:31N 34°41' E 135°12'0 0.0
2015-Jan-30 07:31N 34°41' E 135°12'0 0.0
2015-Jan-30 06:31N 34°41' E 135°12'0 0.0
2015-Jan-30 05:31N 34°41' E 135°12'2 2.0
2015-Jan-30 04:33N 34°40' E 135°14'0 0.0
2015-Jan-30 03:33N 34°40' E 135°14'0 0.0
2015-Jan-30 02:33N 34°40' E 135°14'3 2.7
2015-Jan-30 01:33N 34°41' E 135°17'2 2.0
2015-Jan-30 00:33N 34°39' E 135°16'2 1.7
2015-Jan-29 23:12N 34°37' E 135°15'0 0.1
2015-Jan-29 22:29N 34°37' E 135°15'0 0.0
2015-Jan-29 21:30N 34°37' E 135°15'0 0.0
2015-Jan-29 20:30N 34°37' E 135°15'0 0.0
2015-Jan-29 19:30N 34°37' E 135°15'0 0.0
2015-Jan-29 18:29N 34°37' E 135°15'0 0.0
2015-Jan-29 17:29N 34°37' E 135°15'8 8.8
2015-Jan-29 16:33N 34°29' E 135°11'1212.1
2015-Jan-29 15:32N 34°20' E 135°01'1110.8
2015-Jan-29 14:33N 34°09' E 134°60'217 9.8
2015-Jan-28 16:25N 34°52' E 139°17'1211.9
2015-Jan-28 15:26N 34°59' E 139°29'1112.4
2015-Jan-28 14:33N 35°05' E 139°40'1211.7
2015-Jan-28 13:33N 35°16' E 139°45'1110.8
2015-Jan-28 12:33N 35°26' E 139°41'1 0.9
2015-Jan-28 11:33N 35°27' E 139°42'4 3.9
2015-Jan-28 10:33N 35°27' E 139°47'6 6.4
2015-Jan-28 09:33N 35°33' E 139°50'4 1.9
2015-Jan-28 07:29N 35°36' E 139°47'2 1.5
2015-Jan-28 06:04N 35°34' E 139°49'4 6.2
2015-Jan-28 05:28N 35°31' E 139°50'4 3.7
2015-Jan-28 04:17N 35°29' E 139°45'1 1.5
2015-Jan-28 03:33N 35°28' E 139°45'10 9.9
2015-Jan-28 02:33N 35°18' E 139°44'1111.4
2015-Jan-28 01:33N 35°07' E 139°45'1212.2
2015-Jan-28 00:33N 34°59' E 139°34'223 5.4
2015-Jan-26 07:33N 34°26' E 135°06'1312.6
2015-Jan-26 06:33N 34°36' E 135°15'4 4.3
2015-Jan-26 05:33N 34°41' E 135°16'0 0.0
2015-Jan-26 04:27N 34°41' E 135°16'0 0.0
2015-Jan-26 03:27N 34°41' E 135°16'2 2.1
2015-Jan-26 02:33N 34°40' E 135°14'3 2.7
2015-Jan-26 01:33N 34°41' E 135°17'2 1.5
2015-Jan-26 00:33N 34°40' E 135°15'1 1.0
2015-Jan-25 23:30N 34°39' E 135°15'3 2.3
2015-Jan-25 22:23N 34°41' E 135°12'0 0.0
2015-Jan-25 21:29N 34°41' E 135°12'0 0.0
2015-Jan-25 20:29N 34°41' E 135°12'0 0.0
2015-Jan-25 19:29N 34°41' E 135°12'0 0.0
2015-Jan-25 18:29N 34°41' E 135°12'0 0.0
2015-Jan-25 17:29N 34°41' E 135°12'0 0.0
2015-Jan-25 16:29N 34°41' E 135°12'0 0.0
2015-Jan-25 15:29N 34°41' E 135°12'0 0.0
2015-Jan-25 14:29N 34°41' E 135°12'0 0.0
2015-Jan-25 13:17N 34°41' E 135°12'0 0.0
2015-Jan-25 12:29N 34°41' E 135°12'0 0.0
2015-Jan-25 11:29N 34°41' E 135°12'0 0.0
2015-Jan-25 10:29N 34°41' E 135°12'0 0.0
2015-Jan-25 09:23N 34°41' E 135°12'0 0.0
2015-Jan-25 08:23N 34°41' E 135°12'0 0.0
2015-Jan-25 07:23N 34°41' E 135°12'0 0.0
2015-Jan-25 06:23N 34°41' E 135°12'0 0.0
2015-Jan-25 05:29N 34°41' E 135°12'0 0.0
2015-Jan-25 04:17N 34°41' E 135°12'0 0.0
2015-Jan-25 03:29N 34°41' E 135°12'0 0.0
2015-Jan-25 02:29N 34°41' E 135°12'0 0.0
2015-Jan-25 01:11N 34°41' E 135°12'0 0.0
2015-Jan-25 00:29N 34°41' E 135°12'0 0.0
2015-Jan-24 23:29N 34°41' E 135°12'5 5.1
2015-Jan-24 22:34N 34°37' E 135°15'0 0.1
2015-Jan-24 21:29N 34°37' E 135°15'0 0.0
2015-Jan-24 20:29N 34°37' E 135°16'0 0.0
2015-Jan-24 19:29N 34°37' E 135°16'0 0.0
2015-Jan-24 18:29N 34°37' E 135°16'0 0.0
2015-Jan-24 17:29N 34°37' E 135°16'0 0.0
2015-Jan-24 16:29N 34°37' E 135°16'0 0.0
2015-Jan-24 15:23N 34°37' E 135°16'0 0.1
2015-Jan-24 14:23N 34°37' E 135°15'4 4.4
2015-Jan-24 13:33N 34°33' E 135°14'1312.3
2015-Jan-24 12:30N 34°24' E 135°04'1112.1
2015-Jan-24 11:33N 34°13' E 134°60'1312.8
2015-Jan-24 10:33N 34°00' E 135°01'212 9.5
2015-Jan-23 12:16N 34°49' E 139°12'1112.4
2015-Jan-23 11:25N 34°55' E 139°22'1112.9
2015-Jan-23 10:33N 35°01' E 139°33'1312.7
2015-Jan-23 09:33N 35°10' E 139°45'1212.2
2015-Jan-23 08:33N 35°22' E 139°42'6 5.8
2015-Jan-23 07:33N 35°27' E 139°41'2 1.8
2015-Jan-23 06:34N 35°27' E 139°44'9 8.9
2015-Jan-23 05:30N 35°36' E 139°46'0 0.1
2015-Jan-23 04:30N 35°36' E 139°46'4 4.1
2015-Jan-23 03:28N 35°34' E 139°50'1 1.5
2015-Jan-23 02:30N 35°34' E 139°52'1010.1
2015-Jan-23 01:33N 35°25' E 139°47'1010.5
2015-Jan-23 00:33N 35°15' E 139°47'1111.5
2015-Jan-22 23:33N 35°03' E 139°44'1211.9
2015-Jan-22 22:33N 34°57' E 139°32'  
Track history (hours):
 
Tides and Currents Weather Stations Pressure Air Temp Water Temp Dewpoint Dewpoint Depression Visibility Wind Speed Wind Dir Waves Ship Positions

Daikoku

Last reported at 2015-Feb-01 12:33 UTC. Time now 2015-Feb-01 13:19 UTC.
Position N 35°09' E 139°45'.

Length 95 m; draft 4.1 m.

Type: Cargo ship. MMSI: 431003009.

Date/timePositionNaut miles runAvg speedWind from/ knotsBaromVisibWave heightAir tempDewpointWater temp
2015-Feb-01 12:33N 35°09' E 139°45'1212.1
2015-Feb-01 11:33N 35°20' E 139°42'4 3.8
2015-Feb-01 10:32N 35°24' E 139°41'0 0.0
2015-Feb-01 09:32N 35°24' E 139°41'1 0.7
2015-Feb-01 08:34N 35°23' E 139°40'3 3.0
2015-Feb-01 07:33N 35°26' E 139°42'1 1.0
2015-Feb-01 06:33N 35°27' E 139°41'5 5.1
2015-Feb-01 05:33N 35°22' E 139°43'1010.3
2015-Feb-01 04:33N 35°12' E 139°47'10 9.9
2015-Feb-01 03:33N 35°03' E 139°42'1411.3
2015-Feb-01 02:19N 34°54' E 139°28'22610.7
2015-Jan-31 05:11N 34°14' E 134°59'913.5
2015-Jan-31 04:32N 34°23' E 135°02'1413.7
2015-Jan-31 03:33N 34°32' E 135°14'9 9.4
2015-Jan-31 02:33N 34°41' E 135°17'0 0.3
2015-Jan-31 01:34N 34°41' E 135°16'3 2.6
2015-Jan-31 00:34N 34°41' E 135°13'1 0.6
2015-Jan-30 23:31N 34°41' E 135°12'0 0.0
2015-Jan-30 22:31N 34°41' E 135°12'0 0.0
2015-Jan-30 21:25N 34°41' E 135°12'0 0.0
2015-Jan-30 20:31N 34°41' E 135°12'0 0.0
2015-Jan-30 19:31N 34°41' E 135°12'0 0.0
2015-Jan-30 18:31N 34°41' E 135°12'0 0.0
2015-Jan-30 17:31N 34°41' E 135°12'0 0.0
2015-Jan-30 16:31N 34°41' E 135°12'0 0.0
2015-Jan-30 15:31N 34°41' E 135°12'0 0.0
2015-Jan-30 14:31N 34°41' E 135°12'0 0.0
2015-Jan-30 13:31N 34°41' E 135°12'0 0.0
2015-Jan-30 12:31N 34°41' E 135°12'0 0.0
2015-Jan-30 11:31N 34°41' E 135°12'0 0.0
2015-Jan-30 10:31N 34°41' E 135°12'0 0.0
2015-Jan-30 09:31N 34°41' E 135°12'0 0.0
2015-Jan-30 08:31N 34°41' E 135°12'0 0.0
2015-Jan-30 07:31N 34°41' E 135°12'0 0.0
2015-Jan-30 06:31N 34°41' E 135°12'0 0.0
2015-Jan-30 05:31N 34°41' E 135°12'2 2.0
2015-Jan-30 04:33N 34°40' E 135°14'0 0.0
2015-Jan-30 03:33N 34°40' E 135°14'0 0.0
2015-Jan-30 02:33N 34°40' E 135°14'3 2.7
2015-Jan-30 01:33N 34°41' E 135°17'2 2.0
2015-Jan-30 00:33N 34°39' E 135°16'2 1.7
2015-Jan-29 23:12N 34°37' E 135°15'0 0.1
2015-Jan-29 22:29N 34°37' E 135°15'0 0.0
2015-Jan-29 21:30N 34°37' E 135°15'0 0.0
2015-Jan-29 20:30N 34°37' E 135°15'0 0.0
2015-Jan-29 19:30N 34°37' E 135°15'0 0.0
2015-Jan-29 18:29N 34°37' E 135°15'0 0.0
2015-Jan-29 17:29N 34°37' E 135°15'8 8.8
2015-Jan-29 16:33N 34°29' E 135°11'1212.1
2015-Jan-29 15:32N 34°20' E 135°01'1110.8
2015-Jan-29 14:33N 34°09' E 134°60'217 9.8
2015-Jan-28 16:25N 34°52' E 139°17'1211.9
2015-Jan-28 15:26N 34°59' E 139°29'1112.4
2015-Jan-28 14:33N 35°05' E 139°40'1211.7
2015-Jan-28 13:33N 35°16' E 139°45'1110.8
2015-Jan-28 12:33N 35°26' E 139°41'1 0.9
2015-Jan-28 11:33N 35°27' E 139°42'4 3.9
2015-Jan-28 10:33N 35°27' E 139°47'6 6.4
2015-Jan-28 09:33N 35°33' E 139°50'4 1.9
2015-Jan-28 07:29N 35°36' E 139°47'2 1.5
2015-Jan-28 06:04N 35°34' E 139°49'4 6.2
2015-Jan-28 05:28N 35°31' E 139°50'4 3.7
2015-Jan-28 04:17N 35°29' E 139°45'1 1.5
2015-Jan-28 03:33N 35°28' E 139°45'10 9.9
2015-Jan-28 02:33N 35°18' E 139°44'1111.4
2015-Jan-28 01:33N 35°07' E 139°45'1212.2
2015-Jan-28 00:33N 34°59' E 139°34'223 5.4
2015-Jan-26 07:33N 34°26' E 135°06'1312.6
2015-Jan-26 06:33N 34°36' E 135°15'4 4.3
2015-Jan-26 05:33N 34°41' E 135°16'0 0.0
2015-Jan-26 04:27N 34°41' E 135°16'0 0.0
2015-Jan-26 03:27N 34°41' E 135°16'2 2.1
2015-Jan-26 02:33N 34°40' E 135°14'3 2.7
2015-Jan-26 01:33N 34°41' E 135°17'2 1.5
2015-Jan-26 00:33N 34°40' E 135°15'1 1.0
2015-Jan-25 23:30N 34°39' E 135°15'3 2.3
2015-Jan-25 22:23N 34°41' E 135°12'0 0.0
2015-Jan-25 21:29N 34°41' E 135°12'0 0.0
2015-Jan-25 20:29N 34°41' E 135°12'0 0.0
2015-Jan-25 19:29N 34°41' E 135°12'0 0.0
2015-Jan-25 18:29N 34°41' E 135°12'0 0.0
2015-Jan-25 17:29N 34°41' E 135°12'0 0.0
2015-Jan-25 16:29N 34°41' E 135°12'0 0.0
2015-Jan-25 15:29N 34°41' E 135°12'0 0.0
2015-Jan-25 14:29N 34°41' E 135°12'0 0.0
2015-Jan-25 13:17N 34°41' E 135°12'0 0.0
2015-Jan-25 12:29N 34°41' E 135°12'0 0.0
2015-Jan-25 11:29N 34°41' E 135°12'0 0.0
2015-Jan-25 10:29N 34°41' E 135°12'0 0.0
2015-Jan-25 09:23N 34°41' E 135°12'0 0.0
2015-Jan-25 08:23N 34°41' E 135°12'0 0.0
2015-Jan-25 07:23N 34°41' E 135°12'0 0.0
2015-Jan-25 06:23N 34°41' E 135°12'0 0.0
2015-Jan-25 05:29N 34°41' E 135°12'0 0.0
2015-Jan-25 04:17N 34°41' E 135°12'0 0.0
2015-Jan-25 03:29N 34°41' E 135°12'0 0.0
2015-Jan-25 02:29N 34°41' E 135°12'0 0.0
2015-Jan-25 01:11N 34°41' E 135°12'0 0.0
2015-Jan-25 00:29N 34°41' E 135°12'0 0.0
2015-Jan-24 23:29N 34°41' E 135°12'5 5.1
2015-Jan-24 22:34N 34°37' E 135°15'0 0.1
2015-Jan-24 21:29N 34°37' E 135°15'0 0.0
2015-Jan-24 20:29N 34°37' E 135°16'0 0.0
2015-Jan-24 19:29N 34°37' E 135°16'0 0.0
2015-Jan-24 18:29N 34°37' E 135°16'0 0.0
2015-Jan-24 17:29N 34°37' E 135°16'0 0.0
2015-Jan-24 16:29N 34°37' E 135°16'0 0.0
2015-Jan-24 15:23N 34°37' E 135°16'0 0.1
2015-Jan-24 14:23N 34°37' E 135°15'4 4.4
2015-Jan-24 13:33N 34°33' E 135°14'1312.3
2015-Jan-24 12:30N 34°24' E 135°04'1112.1
2015-Jan-24 11:33N 34°13' E 134°60'1312.8
2015-Jan-24 10:33N 34°00' E 135°01'212 9.5
2015-Jan-23 12:16N 34°49' E 139°12'1112.4
2015-Jan-23 11:25N 34°55' E 139°22'1112.9
2015-Jan-23 10:33N 35°01' E 139°33'1312.7
2015-Jan-23 09:33N 35°10' E 139°45'1212.2
2015-Jan-23 08:33N 35°22' E 139°42'6 5.8
2015-Jan-23 07:33N 35°27' E 139°41'2 1.8
2015-Jan-23 06:34N 35°27' E 139°44'9 8.9
2015-Jan-23 05:30N 35°36' E 139°46'0 0.1
2015-Jan-23 04:30N 35°36' E 139°46'4 4.1
2015-Jan-23 03:28N 35°34' E 139°50'1 1.5
2015-Jan-23 02:30N 35°34' E 139°52'1010.1
2015-Jan-23 01:33N 35°25' E 139°47'1010.5
2015-Jan-23 00:33N 35°15' E 139°47'1111.5
2015-Jan-22 23:33N 35°03' E 139°44'1211.9
2015-Jan-22 22:33N 34°57' E 139°32'  

Dump ship's entire track history